Time;durP1;ratioP1;P1;durP2;ratioP2;P2;SDS_P1;SDS_P2;PMS_P1;PMS_P2;Temp;Humidity;BMP_temperature;BMP_pressure;BME280_temperature;BME280_humidity;BME280_pressure;Samples;Min_cycle;Max_cycle;Signal;HPM_P1;HPM_P2
2022/03/13 00:01:14;;;;;;;;;;;;;;;;;;;;;
2022/03/13 00:03:40;;;;;;;14.85;9.98;;;7.20;99.90;;;;;;5066045;28;20345;-72
2022/03/13 00:06:08;;;;;;;14.05;10.25;;;7.20;99.90;;;;;;5050686;28;20059;-74
2022/03/13 00:08:34;;;;;;;16.15;11.27;;;7.10;99.90;;;;;;5059881;28;20072;-74
2022/03/13 00:11:07;;;;;;;16.55;10.23;;;7.10;99.90;;;;;;5066651;28;20048;-74
2022/03/13 00:13:51;;;;;;;17.75;11.52;;;7.10;99.90;;;;;;5060248;28;20044;-73
2022/03/13 00:16:18;;;;;;;14.68;10.30;;;7.00;99.90;;;;;;5044982;28;20102;-73
2022/03/13 00:18:46;;;;;;;15.80;10.25;;;7.00;99.90;;;;;;5063620;28;20045;-73
2022/03/13 00:21:15;;;;;;;13.68;10.23;;;7.00;99.90;;;;;;5045317;28;20043;-74
2022/03/13 00:23:45;;;;;;;16.65;10.73;;;6.90;99.90;;;;;;5046651;28;20073;-74
2022/03/13 00:26:13;;;;;;;15.55;10.30;;;6.90;99.90;;;;;;5063381;28;20024;-74
2022/03/13 00:28:41;;;;;;;16.55;11.10;;;6.80;99.90;;;;;;5041143;28;20048;-74
2022/03/13 00:31:09;;;;;;;20.77;11.27;;;6.80;99.90;;;;;;5045424;28;20074;-74
2022/03/13 00:33:35;;;;;;;14.75;10.80;;;6.80;99.90;;;;;;5043119;28;20149;-73
2022/03/13 00:36:01;;;;;;;17.10;11.23;;;6.80;99.90;;;;;;5050922;28;21004;-73
2022/03/13 00:38:26;;;;;;;16.75;11.45;;;6.70;99.90;;;;;;5036422;28;20055;-73
2022/03/13 00:40:55;;;;;;;16.25;11.45;;;6.70;99.90;;;;;;5049626;28;20032;-74
2022/03/13 00:43:22;;;;;;;15.63;10.95;;;6.70;99.90;;;;;;5065432;28;20041;-73
2022/03/13 00:46:23;;;;;;;16.40;10.90;;;6.70;99.90;;;;;;5072762;28;20047;-74
2022/03/13 00:48:48;;;;;;;17.52;10.73;;;6.70;99.90;;;;;;5028868;28;20134;-73
2022/03/13 00:51:33;;;;;;;13.25;10.40;;;7.60;99.90;;;;;;5053777;28;20028;-74
2022/03/13 00:54:01;;;;;;;19.13;11.57;;;6.60;99.90;;;;;;5020900;28;20052;-74
2022/03/13 00:56:27;;;;;;;14.45;10.13;;;6.60;99.90;;;;;;5067426;28;20113;-74
2022/03/13 00:59:01;;;;;;;15.65;10.30;;;6.60;99.90;;;;;;5069743;28;20048;-74
2022/03/13 01:01:39;;;;;;;14.73;10.70;;;6.60;99.90;;;;;;5063891;28;20031;-74
2022/03/13 01:04:05;;;;;;;16.48;11.02;;;6.70;99.90;;;;;;5060946;28;20080;-73
2022/03/13 01:06:30;;;;;;;16.30;11.18;;;6.50;99.90;;;;;;5059241;28;20032;-73
2022/03/13 01:08:56;;;;;;;15.65;10.93;;;6.50;99.90;;;;;;5019255;28;20029;-74
2022/03/13 01:11:23;;;;;;;17.35;11.45;;;6.50;99.90;;;;;;5051455;28;20040;-73
2022/03/13 01:13:51;;;;;;;19.30;11.10;;;6.50;99.90;;;;;;5053004;28;20044;-73
2022/03/13 01:16:23;;;;;;;16.73;11.23;;;6.40;99.90;;;;;;5036118;28;20036;-73
2022/03/13 01:18:58;;;;;;;16.55;11.38;;;6.40;99.90;;;;;;5065222;28;20281;-73
2022/03/13 01:21:28;;;;;;;17.98;11.70;;;6.50;99.90;;;;;;5076422;28;20064;-74
2022/03/13 01:24:06;;;;;;;17.65;11.63;;;6.50;99.90;;;;;;5049011;28;20035;-74
2022/03/13 01:26:36;;;;;;;15.13;11.13;;;6.50;99.90;;;;;;5057836;28;20036;-74
2022/03/13 01:29:04;;;;;;;18.35;11.75;;;6.50;99.90;;;;;;5069670;28;20037;-74
2022/03/13 01:31:33;;;;;;;16.00;11.13;;;6.60;99.90;;;;;;5054563;28;20107;-74
2022/03/13 01:34:00;;;;;;;16.20;10.02;;;6.60;99.90;;;;;;5057023;28;20040;-74
2022/03/13 01:36:27;;;;;;;17.05;12.65;;;6.60;99.90;;;;;;5069273;28;20104;-75
2022/03/13 01:39:04;;;;;;;16.02;9.13;;;6.70;99.90;;;;;;5056671;28;20207;-74
2022/03/13 01:41:34;;;;;;;14.45;10.32;;;6.70;99.90;;;;;;5075460;28;20036;-73
2022/03/13 01:44:06;;;;;;;15.48;10.20;;;6.60;99.90;;;;;;5053062;28;20048;-74
2022/03/13 01:46:31;;;;;;;17.33;11.27;;;6.60;99.90;;;;;;5051714;28;20252;-74
2022/03/13 01:49:27;;;;;;;14.18;10.98;;;6.60;99.90;;;;;;5060995;28;20050;-74
2022/03/13 01:51:52;;;;;;;15.90;11.73;;;6.90;99.90;;;;;;5074060;28;20045;-74
2022/03/13 01:54:18;;;;;;;18.75;11.55;;;6.60;99.90;;;;;;5074242;28;20323;-73
2022/03/13 01:56:44;;;;;;;17.50;12.80;;;6.60;99.90;;;;;;5057194;28;20036;-73
2022/03/13 01:59:14;;;;;;;15.27;10.27;;;6.60;99.90;;;;;;5032083;28;20339;-74
2022/03/13 02:01:39;;;;;;;21.42;11.82;;;6.60;99.90;;;;;;5074451;28;20263;-74
2022/03/13 02:04:06;;;;;;;17.27;10.88;;;6.60;99.90;;;;;;5047750;28;20041;-74
2022/03/13 02:06:32;;;;;;;15.25;10.85;;;6.60;99.90;;;;;;5078760;28;20036;-74
2022/03/13 02:08:59;;;;;;;16.63;11.57;;;6.60;99.90;;;;;;5047556;28;20049;-74
2022/03/13 02:11:40;;;;;;;17.92;11.52;;;6.60;99.90;;;;;;5060321;28;20222;-74
2022/03/13 02:14:11;;;;;;;16.42;11.70;;;6.60;99.90;;;;;;5068819;28;20048;-75
2022/03/13 02:16:37;;;;;;;16.92;11.20;;;6.60;99.90;;;;;;5050887;28;20049;-75
2022/03/13 02:19:05;;;;;;;16.83;11.93;;;6.60;99.90;;;;;;5053166;28;20087;-72
2022/03/13 02:21:38;;;;;;;14.57;11.13;;;6.60;99.90;;;;;;5069231;28;20041;-71
2022/03/13 02:24:11;;;;;;;18.92;11.98;;;6.70;99.90;;;;;;5072570;28;20082;-71
2022/03/13 02:26:42;;;;;;;16.02;11.95;;;6.70;99.90;;;;;;5066162;28;20060;-73
2022/03/13 02:29:14;;;;;;;15.65;10.73;;;6.60;99.90;;;;;;5048243;28;20092;-73
2022/03/13 02:31:40;;;;;;;16.33;12.07;;;6.70;99.90;;;;;;5065255;28;20287;-73
2022/03/13 02:34:11;;;;;;;16.95;11.20;;;6.80;99.90;;;;;;5048462;28;20037;-73
2022/03/13 02:36:37;;;;;;;17.63;10.98;;;7.00;99.90;;;;;;5065834;28;20390;-73
2022/03/13 02:39:09;;;;;;;18.10;12.35;;;6.90;99.90;;;;;;5060922;28;20041;-74
2022/03/13 02:41:35;;;;;;;15.85;10.60;;;7.00;99.90;;;;;;5069701;28;20066;-74
2022/03/13 02:44:01;;;;;;;17.00;11.95;;;7.00;99.90;;;;;;5052641;28;20041;-74
2022/03/13 02:46:45;;;;;;;17.45;11.40;;;7.00;99.90;;;;;;5058778;28;20028;-74
2022/03/13 02:49:12;;;;;;;14.70;11.23;;;7.00;99.90;;;;;;5052003;28;20028;-74
2022/03/13 02:51:38;;;;;;;16.00;11.45;;;7.00;99.90;;;;;;5058621;28;20043;-74
2022/03/13 02:54:04;;;;;;;15.75;11.63;;;7.00;99.90;;;;;;5034735;28;20327;-74
2022/03/13 02:56:30;;;;;;;16.40;11.60;;;7.00;99.90;;;;;;5058216;28;20058;-74
2022/03/13 02:58:56;;;;;;;18.92;11.75;;;6.90;99.90;;;;;;5040829;28;20054;-74
2022/03/13 03:01:22;;;;;;;15.98;11.55;;;6.90;99.90;;;;;;5042658;28;20231;-73
2022/03/13 03:03:56;;;;;;;16.85;11.52;;;6.80;99.90;;;;;;5065667;28;20313;-75
2022/03/13 03:06:24;;;;;;;16.02;11.43;;;6.80;99.90;;;;;;5050994;28;20060;-74
2022/03/13 03:08:51;;;;;;;14.85;10.88;;;6.70;99.90;;;;;;5039766;28;20108;-74
2022/03/13 03:11:17;;;;;;;17.95;12.35;;;6.70;99.90;;;;;;5065564;28;20376;-74
2022/03/13 03:13:43;;;;;;;16.17;12.05;;;6.70;99.90;;;;;;5055667;28;20831;-73
2022/03/13 03:16:08;;;;;;;16.80;11.50;;;6.60;99.90;;;;;;5052546;28;20062;-74
2022/03/13 03:18:34;;;;;;;15.68;11.10;;;6.60;99.90;;;;;;5033546;28;20040;-74
2022/03/13 03:21:00;;;;;;;17.88;10.80;;;6.60;99.90;;;;;;5065942;28;20315;-74
2022/03/13 03:23:26;;;;;;;15.85;11.77;;;6.60;99.90;;;;;;5060426;28;20028;-73
2022/03/13 03:25:51;;;;;;;18.90;11.95;;;6.60;99.90;;;;;;5056185;28;20380;-74
2022/03/13 03:28:18;;;;;;;13.70;8.80;;;6.90;99.90;;;;;;5054815;28;20041;-74
2022/03/13 03:30:45;;;;;;;15.63;10.07;;;6.60;99.90;;;;;;5050078;28;20044;-75
2022/03/13 03:33:11;;;;;;;17.17;11.60;;;6.60;99.90;;;;;;5076025;28;20032;-74
2022/03/13 03:35:37;;;;;;;19.90;12.05;;;6.50;99.90;;;;;;5054400;28;20041;-76
2022/03/13 03:38:03;;;;;;;18.20;12.60;;;6.50;99.90;;;;;;5071251;28;20111;-75
2022/03/13 03:40:32;;;;;;;17.25;12.15;;;6.50;99.90;;;;;;5043115;28;20037;-73
2022/03/13 03:43:00;;;;;;;18.50;12.93;;;6.50;99.90;;;;;;5055476;28;20206;-73
2022/03/13 03:45:26;;;;;;;19.60;12.55;;;6.40;99.90;;;;;;5071263;28;20041;-74
2022/03/13 03:47:52;;;;;;;19.52;12.48;;;6.40;99.90;;;;;;5069694;28;20045;-76
2022/03/13 03:50:21;;;;;;;16.35;11.70;;;6.40;99.90;;;;;;5042870;28;20032;-74
2022/03/13 03:52:47;;;;;;;15.45;11.00;;;6.50;99.90;;;;;;5042322;28;20041;-73
2022/03/13 03:55:14;;;;;;;19.02;12.15;;;6.40;99.90;;;;;;5069379;28;20088;-73
2022/03/13 03:57:41;;;;;;;15.23;10.30;;;6.30;99.90;;;;;;5054831;28;20033;-73
2022/03/13 04:00:08;;;;;;;15.80;11.32;;;6.40;99.90;;;;;;5049852;28;20071;-74
2022/03/13 04:02:34;;;;;;;18.48;11.98;;;6.30;99.90;;;;;;5039756;28;20196;-73
2022/03/13 04:05:01;;;;;;;15.48;11.23;;;6.40;99.90;;;;;;5050641;28;20048;-74
2022/03/13 04:07:27;;;;;;;18.00;11.63;;;6.30;99.90;;;;;;5065306;28;20328;-73
2022/03/13 04:09:52;;;;;;;19.20;11.93;;;6.30;99.90;;;;;;5056120;28;20095;-73
2022/03/13 04:12:18;;;;;;;16.63;11.20;;;6.30;99.90;;;;;;5055472;28;20044;-72
2022/03/13 04:14:47;;;;;;;17.23;11.48;;;7.00;99.90;;;;;;5066226;28;20242;-73
2022/03/13 04:17:13;;;;;;;17.50;11.50;;;6.20;99.90;;;;;;5040626;28;20049;-73
2022/03/13 04:19:39;;;;;;;16.08;11.23;;;6.20;99.90;;;;;;5044354;28;20035;-73
2022/03/13 04:22:05;;;;;;;16.27;11.50;;;6.40;99.90;;;;;;5044104;28;20037;-74
2022/03/13 04:24:31;;;;;;;17.60;12.45;;;6.10;99.90;;;;;;5075805;28;20258;-74
2022/03/13 04:26:57;;;;;;;15.43;10.48;;;6.00;99.90;;;;;;5042967;28;20101;-74
2022/03/13 04:29:24;;;;;;;15.43;11.10;;;6.00;99.90;;;;;;5075082;28;20044;-74
2022/03/13 04:32:23;;;;;;;17.10;11.38;;;5.90;99.90;;;;;;5047400;28;20047;-74
2022/03/13 04:34:50;;;;;;;18.73;11.27;;;5.90;99.90;;;;;;5056194;28;20087;-74
2022/03/13 04:37:16;;;;;;;17.33;11.02;;;5.80;99.90;;;;;;5045189;28;20041;-74
2022/03/13 04:39:42;;;;;;;16.77;11.80;;;5.80;99.90;;;;;;5054957;28;20056;-74
2022/03/13 04:42:08;;;;;;;18.05;12.23;;;5.80;99.90;;;;;;5031247;28;20319;-74
2022/03/13 04:44:34;;;;;;;18.80;12.02;;;5.70;99.90;;;;;;5070199;28;20090;-75
2022/03/13 04:47:01;;;;;;;18.42;13.27;;;5.60;99.90;;;;;;5060077;28;20044;-75
2022/03/13 04:49:28;;;;;;;17.08;11.40;;;5.60;99.90;;;;;;5074860;28;20033;-74
2022/03/13 04:51:54;;;;;;;18.00;11.55;;;5.60;99.90;;;;;;5024580;28;20038;-74
2022/03/13 04:54:19;;;;;;;18.23;11.95;;;5.60;99.90;;;;;;5063444;28;20075;-74
2022/03/13 04:56:45;;;;;;;17.35;10.90;;;5.60;99.90;;;;;;5048898;28;20115;-74
2022/03/13 04:59:12;;;;;;;18.20;10.98;;;5.50;99.90;;;;;;5081571;28;20026;-74
2022/03/13 05:01:37;;;;;;;15.30;11.30;;;5.60;99.90;;;;;;5079706;28;20147;-74
2022/03/13 05:04:05;;;;;;;18.77;11.57;;;5.50;99.90;;;;;;5080590;28;20226;-73
2022/03/13 05:06:36;;;;;;;17.70;10.65;;;5.50;99.90;;;;;;5063484;28;20048;-74
2022/03/13 05:09:03;;;;;;;15.05;10.27;;;5.50;99.90;;;;;;5062905;28;20370;-74
2022/03/13 05:11:29;;;;;;;15.93;11.20;;;5.50;99.90;;;;;;5077129;28;20035;-74
2022/03/13 05:13:55;;;;;;;15.48;10.50;;;5.50;99.90;;;;;;5063673;28;20515;-74
2022/03/13 05:16:21;;;;;;;16.63;11.55;;;5.50;99.90;;;;;;5063703;28;20047;-73
2022/03/13 05:18:48;;;;;;;15.25;10.23;;;5.40;99.90;;;;;;5063331;28;20064;-75
2022/03/13 05:21:14;;;;;;;16.00;11.75;;;5.40;99.90;;;;;;5063846;28;20109;-72
2022/03/13 05:23:40;;;;;;;17.65;12.23;;;5.60;99.90;;;;;;5080636;28;20032;-73
2022/03/13 05:26:05;;;;;;;13.45;10.02;;;6.10;99.90;;;;;;5063306;28;20091;-73
2022/03/13 05:28:36;;;;;;;18.88;11.57;;;5.30;99.90;;;;;;5046401;28;20037;-73
2022/03/13 05:31:02;;;;;;;18.13;11.90;;;5.60;99.90;;;;;;5063597;28;20055;-73
2022/03/13 05:33:28;;;;;;;14.80;10.93;;;5.20;99.90;;;;;;5065819;28;20108;-73
2022/03/13 05:35:55;;;;;;;20.45;11.60;;;5.20;99.90;;;;;;5017150;28;20032;-72
2022/03/13 05:38:20;;;;;;;18.05;12.63;;;5.20;99.90;;;;;;5063228;28;20036;-72
2022/03/13 05:41:10;;;;;;;15.52;10.90;;;5.30;99.90;;;;;;5050844;28;20041;-72
2022/03/13 05:43:40;;;;;;;15.80;11.63;;;5.20;99.90;;;;;;5061768;28;20040;-73
2022/03/13 05:46:06;;;;;;;14.70;10.60;;;5.10;99.90;;;;;;5029984;28;20162;-73
2022/03/13 05:48:32;;;;;;;16.50;10.85;;;5.10;99.90;;;;;;5046182;28;20028;-73
2022/03/13 05:50:58;;;;;;;18.90;12.38;;;5.00;99.90;;;;;;5062885;28;20051;-73
2022/03/13 05:53:24;;;;;;;15.48;10.75;;;5.00;99.90;;;;;;5052260;28;20107;-73
2022/03/13 05:55:53;;;;;;;16.30;11.07;;;5.00;99.90;;;;;;5053688;28;20051;-74
2022/03/13 05:58:19;;;;;;;17.05;12.15;;;5.70;99.90;;;;;;5045208;28;20254;-74
2022/03/13 06:01:00;;;;;;;17.35;11.85;;;6.00;99.90;;;;;;5030168;28;20044;-74
2022/03/13 06:03:26;;;;;;;14.88;12.13;;;5.00;99.90;;;;;;5053088;28;20204;-74
2022/03/13 06:05:52;;;;;;;16.75;11.95;;;5.00;99.90;;;;;;5048495;28;20085;-74
2022/03/13 06:08:18;;;;;;;16.25;11.82;;;5.50;99.90;;;;;;5029481;28;20111;-75
2022/03/13 06:10:43;;;;;;;16.52;11.35;;;5.10;99.90;;;;;;5063092;28;20052;-75
2022/03/13 06:13:09;;;;;;;15.35;10.77;;;6.00;99.90;;;;;;5061079;28;20233;-74
2022/03/13 06:15:36;;;;;;;15.77;10.63;;;5.70;99.90;;;;;;5060720;28;20044;-73
2022/03/13 06:18:02;;;;;;;15.38;10.00;;;5.20;99.90;;;;;;5041411;28;20060;-74
2022/03/13 06:20:28;;;;;;;16.23;10.25;;;5.20;99.90;;;;;;5062119;28;20036;-74
2022/03/13 06:22:54;;;;;;;17.88;11.20;;;5.20;99.90;;;;;;5061784;28;20072;-74
2022/03/13 06:25:19;;;;;;;14.93;10.90;;;5.20;99.90;;;;;;5067337;28;20039;-75
2022/03/13 06:27:45;;;;;;;15.15;9.93;;;5.30;99.90;;;;;;5058140;28;20243;-74
2022/03/13 06:30:16;;;;;;;15.30;10.38;;;5.30;99.90;;;;;;5072180;28;20108;-75
2022/03/13 06:32:44;;;;;;;15.70;9.43;;;5.30;99.90;;;;;;5062353;28;20072;-75
2022/03/13 06:35:10;;;;;;;14.20;10.85;;;5.30;99.90;;;;;;5045740;28;20067;-75
2022/03/13 06:37:40;;;;;;;16.08;10.30;;;5.40;99.90;;;;;;5054101;28;20154;-74
2022/03/13 06:40:07;;;;;;;15.60;10.52;;;6.00;99.90;;;;;;5061576;28;20113;-74
2022/03/13 06:42:34;;;;;;;15.35;10.05;;;5.50;99.90;;;;;;5061246;28;20091;-73
2022/03/13 06:45:00;;;;;;;14.57;9.88;;;5.60;99.90;;;;;;5045409;28;20047;-74
2022/03/13 06:47:26;;;;;;;16.73;10.25;;;5.70;99.90;;;;;;5072169;28;20055;-74
2022/03/13 06:49:52;;;;;;;16.00;10.20;;;5.80;99.90;;;;;;5053032;28;20052;-74
2022/03/13 06:52:18;;;;;;;14.02;9.60;;;5.80;99.90;;;;;;5063580;28;20141;-73
2022/03/13 06:54:45;;;;;;;18.13;10.95;;;5.70;99.90;;;;;;5055088;28;20056;-73
2022/03/13 06:57:15;;;;;;;15.13;9.80;;;5.70;99.90;;;;;;5068340;28;20043;-73
2022/03/13 06:59:44;;;;;;;12.32;8.85;;;5.70;99.90;;;;;;5058412;28;20037;-73
2022/03/13 07:02:11;;;;;;;15.32;10.40;;;5.60;99.90;;;;;;5065796;28;20039;-74
2022/03/13 07:04:37;;;;;;;12.40;9.48;;;5.60;99.90;;;;;;5053193;28;20060;-73
2022/03/13 07:07:04;;;;;;;12.90;9.38;;;5.60;99.90;;;;;;5056886;28;20059;-74
2022/03/13 07:09:29;;;;;;;13.82;9.48;;;5.50;99.90;;;;;;5056611;28;20037;-74
2022/03/13 07:11:55;;;;;;;15.43;8.73;;;5.50;99.90;;;;;;5071616;28;20111;-74
2022/03/13 07:14:21;;;;;;;15.10;10.57;;;5.50;99.90;;;;;;5045427;28;20064;-74
2022/03/13 07:16:48;;;;;;;13.57;9.57;;;5.40;99.90;;;;;;5067952;28;20044;-73
2022/03/13 07:19:14;;;;;;;14.30;9.13;;;5.40;99.90;;;;;;5051355;28;20120;-73
2022/03/13 07:21:39;;;;;;;16.73;9.75;;;5.40;99.90;;;;;;5051012;28;20338;-74
2022/03/13 07:24:06;;;;;;;14.23;9.25;;;5.40;99.90;;;;;;5071833;28;20071;-74
2022/03/13 07:26:31;;;;;;;16.23;9.60;;;5.50;99.90;;;;;;5046129;28;20086;-74
2022/03/13 07:28:57;;;;;;;15.05;9.65;;;5.50;99.90;;;;;;5072702;28;20331;-76
2022/03/13 07:31:23;;;;;;;14.15;10.18;;;5.50;99.90;;;;;;5033635;28;20086;-74
2022/03/13 07:33:49;;;;;;;15.20;10.02;;;5.60;99.90;;;;;;5055794;28;20155;-74
2022/03/13 07:36:14;;;;;;;16.95;9.93;;;5.60;99.90;;;;;;5041842;28;20290;-75
2022/03/13 07:38:40;;;;;;;16.17;10.27;;;5.70;99.90;;;;;;5039415;28;20274;-73
2022/03/13 07:41:06;;;;;;;14.75;9.48;;;6.50;99.90;;;;;;5059510;28;20039;-74
2022/03/13 07:43:33;;;;;;;15.68;10.30;;;5.80;99.90;;;;;;5044158;28;20036;-74
2022/03/13 07:45:59;;;;;;;16.20;9.68;;;6.00;99.90;;;;;;5059525;28;20055;-75
2022/03/13 07:48:25;;;;;;;14.63;9.57;;;5.90;99.90;;;;;;5082322;28;20222;-74
2022/03/13 07:50:53;;;;;;;13.73;10.30;;;5.90;99.90;;;;;;5065388;28;20068;-74
2022/03/13 07:53:19;;;;;;;11.95;8.00;;;7.10;99.90;;;;;;5054399;28;20044;-74
2022/03/13 07:55:45;;;;;;;12.15;8.88;;;6.10;99.90;;;;;;5079473;28;20040;-74
2022/03/13 07:58:11;;;;;;;14.00;9.10;;;6.20;99.90;;;;;;5066204;28;20087;-74
2022/03/13 08:00:36;;;;;;;13.43;9.43;;;6.30;99.90;;;;;;5041882;28;20103;-74
2022/03/13 08:03:07;;;;;;;13.77;9.05;;;6.40;99.90;;;;;;5056560;28;20197;-74
2022/03/13 08:05:36;;;;;;;12.70;8.27;;;6.60;99.90;;;;;;5058727;28;20208;-74
2022/03/13 08:08:09;;;;;;;14.20;9.38;;;6.80;99.90;;;;;;5061904;28;20226;-74
2022/03/13 08:10:34;;;;;;;11.68;8.65;;;6.90;99.90;;;;;;5063954;28;20078;-74
2022/03/13 08:13:00;;;;;;;12.82;9.57;;;7.20;99.90;;;;;;5069203;28;20072;-74
2022/03/13 08:15:26;;;;;;;14.38;9.85;;;7.40;99.90;;;;;;5072769;28;20502;-72
2022/03/13 08:17:52;;;;;;;13.43;8.77;;;7.40;99.90;;;;;;5066503;28;20151;-73
2022/03/13 08:20:18;;;;;;;11.48;8.98;;;7.40;99.90;;;;;;5052852;28;20033;-73
2022/03/13 08:22:45;;;;;;;14.18;9.15;;;7.60;99.90;;;;;;5072236;28;20033;-73
2022/03/13 08:25:15;;;;;;;12.93;9.00;;;7.50;99.90;;;;;;5057956;28;20048;-74
2022/03/13 08:28:03;;;;;;;13.65;9.93;;;7.60;99.90;;;;;;5052739;28;20072;-72
2022/03/13 08:30:29;;;;;;;12.75;9.57;;;7.50;99.90;;;;;;5059969;28;20047;-74
2022/03/13 08:32:55;;;;;;;13.60;8.77;;;7.70;99.90;;;;;;5066421;28;20032;-73
2022/03/13 08:35:21;;;;;;;12.68;8.98;;;7.80;99.90;;;;;;5068144;28;20051;-73
2022/03/13 08:37:47;;;;;;;12.73;9.73;;;7.80;99.90;;;;;;5056400;28;20051;-74
2022/03/13 08:40:13;;;;;;;12.00;8.00;;;7.90;99.90;;;;;;5068558;28;20045;-73
2022/03/13 08:42:39;;;;;;;14.80;9.50;;;7.90;99.90;;;;;;5051130;28;20107;-74
2022/03/13 08:45:05;;;;;;;14.43;9.57;;;8.30;99.90;;;;;;5045116;28;20041;-74
2022/03/13 08:47:31;;;;;;;13.13;9.00;;;8.00;99.90;;;;;;5053499;28;20068;-74
2022/03/13 08:49:57;;;;;;;14.07;9.57;;;8.00;99.90;;;;;;5062808;28;20036;-73
2022/03/13 08:52:23;;;;;;;14.68;9.95;;;8.10;99.90;;;;;;5071845;28;20048;-73
2022/03/13 08:54:49;;;;;;;13.10;9.35;;;8.10;99.90;;;;;;5071118;28;20036;-72
2022/03/13 08:57:15;;;;;;;13.00;9.07;;;8.20;99.90;;;;;;5070300;28;20055;-74
2022/03/13 08:59:41;;;;;;;13.75;9.68;;;8.30;99.90;;;;;;5063287;28;20032;-73
2022/03/13 09:02:09;;;;;;;15.82;9.77;;;8.50;99.90;;;;;;5056638;28;20064;-73
2022/03/13 09:04:35;;;;;;;13.52;8.90;;;8.70;99.90;;;;;;5055044;28;20049;-73
2022/03/13 09:07:01;;;;;;;13.55;9.38;;;8.80;99.90;;;;;;5075466;28;20037;-74
2022/03/13 09:09:27;;;;;;;12.50;8.02;;;9.10;99.90;;;;;;5078951;28;20048;-73
2022/03/13 09:11:53;;;;;;;11.65;8.02;;;9.10;99.40;;;;;;5061910;28;20293;-74
2022/03/13 09:14:20;;;;;;;13.52;9.27;;;9.30;98.20;;;;;;5078183;28;20028;-73
2022/03/13 09:17:09;;;;;;;13.85;8.82;;;9.60;98.60;;;;;;5056434;28;20323;-73
2022/03/13 09:19:35;;;;;;;13.65;8.98;;;9.80;94.20;;;;;;5044256;28;20032;-74
2022/03/13 09:22:00;;;;;;;15.13;9.93;;;10.10;94.00;;;;;;5033255;28;20208;-73
2022/03/13 09:24:26;;;;;;;11.65;8.60;;;10.00;91.20;;;;;;5048045;28;20036;-75
2022/03/13 09:26:52;;;;;;;13.15;9.60;;;10.20;91.60;;;;;;5063040;28;20045;-74
2022/03/13 09:29:18;;;;;;;11.82;8.57;;;10.40;91.90;;;;;;5071582;28;20036;-73
2022/03/13 09:31:44;;;;;;;13.82;9.15;;;10.40;91.40;;;;;;5079916;28;20079;-73
2022/03/13 09:34:10;;;;;;;15.68;9.73;;;10.50;89.10;;;;;;5065584;28;20041;-72
2022/03/13 09:36:37;;;;;;;12.32;8.68;;;10.60;90.60;;;;;;5043507;28;20033;-73
2022/03/13 09:39:07;;;;;;;13.43;8.85;;;10.70;89.60;;;;;;5053016;28;20101;-73
2022/03/13 09:41:33;;;;;;;12.38;8.60;;;10.90;86.20;;;;;;5029253;28;20040;-72
2022/03/13 09:43:59;;;;;;;13.52;9.07;;;10.90;80.40;;;;;;5057867;28;20046;-72
2022/03/13 09:46:25;;;;;;;11.88;8.88;;;11.10;78.80;;;;;;5079903;28;20067;-72
2022/03/13 09:48:54;;;;;;;12.30;8.10;;;11.20;78.30;;;;;;5054571;28;20036;-72
2022/03/13 09:51:20;;;;;;;10.32;7.43;;;11.30;74.70;;;;;;5062080;28;20050;-73
2022/03/13 09:53:49;;;;;;;10.13;7.65;;;11.40;72.40;;;;;;5044368;28;20502;-72
2022/03/13 09:56:24;;;;;;;14.02;8.82;;;11.80;73.40;;;;;;5063287;28;20112;-74
2022/03/13 09:58:50;;;;;;;13.93;9.98;;;12.00;71.10;;;;;;5071791;28;20044;-73
2022/03/13 10:01:15;;;;;;;14.13;9.02;;;12.00;68.00;;;;;;5039876;28;20339;-73
2022/03/13 10:03:41;;;;;;;11.80;8.38;;;12.30;68.00;;;;;;5020195;28;20049;-74
2022/03/13 10:06:07;;;;;;;12.20;9.48;;;12.50;65.20;;;;;;5062395;28;20117;-73
2022/03/13 10:08:36;;;;;;;13.10;9.63;;;12.30;63.10;;;;;;5039547;28;20346;-74
2022/03/13 10:11:20;;;;;;;12.52;9.50;;;12.70;66.80;;;;;;5043861;28;20123;-73
2022/03/13 10:13:46;;;;;;;11.25;8.73;;;12.80;63.50;;;;;;5033085;28;20068;-73
2022/03/13 10:16:25;;;;;;;12.50;9.07;;;13.20;63.50;;;;;;5055481;28;20044;-73
2022/03/13 10:18:50;;;;;;;13.02;8.77;;;13.40;62.60;;;;;;5055654;28;20114;-73
2022/03/13 10:21:29;;;;;;;14.88;10.68;;;13.50;64.20;;;;;;5045928;28;20334;-73
2022/03/13 10:24:10;;;;;;;14.23;9.95;;;13.90;63.50;;;;;;5048002;28;20047;-73
2022/03/13 10:26:46;;;;;;;13.25;9.45;;;13.50;59.50;;;;;;5060483;28;20124;-74
2022/03/13 10:29:30;;;;;;;12.95;9.07;;;13.70;63.50;;;;;;5048029;28;20214;-73
2022/03/13 10:31:59;;;;;;;14.57;10.60;;;13.70;61.80;;;;;;5043237;28;20045;-73
2022/03/13 10:34:26;;;;;;;12.07;9.43;;;13.30;59.00;;;;;;5064507;28;20045;-73
2022/03/13 10:36:51;;;;;;;13.27;9.20;;;13.70;63.50;;;;;;5037573;28;20156;-73
2022/03/13 10:39:20;;;;;;;14.90;9.73;;;13.80;61.80;;;;;;5063178;28;20111;-74
2022/03/13 10:41:53;;;;;;;14.60;10.07;;;13.90;61.50;;;;;;5047326;28;20047;-74
2022/03/13 10:44:22;;;;;;;13.05;10.05;;;14.20;63.40;;;;;;5055182;28;20098;-74
2022/03/13 10:47:10;;;;;;;13.13;9.63;;;14.40;62.60;;;;;;5043923;28;20044;-74
2022/03/13 10:49:40;;;;;;;12.02;9.80;;;14.40;59.10;;;;;;5067248;28;20061;-74
2022/03/13 10:52:25;;;;;;;14.77;9.90;;;14.20;59.60;;;;;;5071139;28;20319;-74
2022/03/13 10:54:52;;;;;;;13.85;10.75;;;14.30;57.20;;;;;;5053667;28;20236;-74
2022/03/13 10:57:19;;;;;;;13.93;9.85;;;14.10;59.00;;;;;;5048782;28;20277;-74
2022/03/13 10:59:45;;;;;;;12.30;9.57;;;14.20;58.50;;;;;;5045818;28;20044;-74
2022/03/13 11:02:12;;;;;;;12.93;10.48;;;14.30;58.20;;;;;;5063801;28;20251;-74
2022/03/13 11:04:46;;;;;;;15.40;10.32;;;14.10;57.30;;;;;;5055315;28;20283;-74
2022/03/13 11:07:12;;;;;;;13.23;9.80;;;14.00;56.80;;;;;;5055113;28;20044;-74
2022/03/13 11:09:38;;;;;;;14.18;10.38;;;14.10;57.80;;;;;;5053547;28;20055;-74
2022/03/13 11:12:06;;;;;;;13.35;10.23;;;14.00;59.40;;;;;;5061907;28;20033;-74
2022/03/13 11:14:34;;;;;;;13.30;8.98;;;13.70;58.40;;;;;;5069459;28;20048;-74
2022/03/13 11:17:01;;;;;;;14.27;10.13;;;13.80;57.80;;;;;;5055813;28;20390;-74
2022/03/13 11:19:29;;;;;;;12.52;10.25;;;14.00;58.80;;;;;;5065461;28;20057;-73
2022/03/13 11:21:55;;;;;;;13.07;9.75;;;14.50;60.60;;;;;;5065737;28;20045;-73
2022/03/13 11:24:23;;;;;;;12.63;9.82;;;14.60;57.40;;;;;;5046906;28;20048;-73
2022/03/13 11:26:51;;;;;;;13.35;10.52;;;14.60;58.00;;;;;;5026905;28;20056;-73
2022/03/13 11:29:57;;;;;;;13.18;10.45;;;15.10;59.00;;;;;;5042959;28;20402;-74
2022/03/13 11:32:51;;;;;;;14.05;9.60;;;14.80;56.20;;;;;;5053434;28;20104;-73
2022/03/13 11:35:25;;;;;;;13.20;9.93;;;15.20;56.30;;;;;;5061398;28;20354;-73
2022/03/13 11:37:52;;;;;;;13.02;9.93;;;15.30;56.80;;;;;;5053835;28;20072;-73
2022/03/13 11:40:34;;;;;;;12.15;9.80;;;15.60;57.10;;;;;;5076844;28;20101;-73
2022/03/13 11:43:17;;;;;;;14.10;9.82;;;15.70;55.20;;;;;;5065582;28;20098;-73
2022/03/13 11:45:59;;;;;;;13.63;10.38;;;15.80;55.10;;;;;;5064732;28;20045;-74
2022/03/13 11:48:32;;;;;;;11.88;8.85;;;15.60;54.20;;;;;;5055727;28;20118;-74
2022/03/13 11:51:04;;;;;;;12.50;9.68;;;15.80;55.90;;;;;;5076733;28;20048;-73
2022/03/13 11:53:40;;;;;;;14.82;10.43;;;15.70;53.40;;;;;;5061896;28;20045;-73
2022/03/13 11:56:07;;;;;;;12.10;9.70;;;15.70;55.30;;;;;;5071243;28;20328;-73
2022/03/13 11:58:47;;;;;;;14.05;10.15;;;15.80;56.90;;;;;;5070764;28;20044;-73
2022/03/13 12:01:20;;;;;;;12.32;9.55;;;15.70;56.60;;;;;;5064627;28;20633;-74
2022/03/13 12:04:04;;;;;;;12.33;9.20;;;15.60;57.10;;;;;;5033660;28;20051;-75
2022/03/13 12:06:42;;;;;;;12.15;8.75;;;15.20;56.40;;;;;;5052875;28;20250;-73
2022/03/13 12:09:12;;;;;;;13.18;9.35;;;15.10;56.30;;;;;;5060404;28;20040;-74
2022/03/13 12:11:43;;;;;;;10.93;9.13;;;15.30;57.50;;;;;;5050597;28;20112;-74
2022/03/13 12:14:12;;;;;;;12.82;9.90;;;15.30;55.30;;;;;;5051266;28;20054;-74
2022/03/13 12:16:39;;;;;;;11.68;9.45;;;15.30;56.90;;;;;;5051723;28;20052;-74
2022/03/13 12:19:05;;;;;;;11.18;9.35;;;15.10;56.10;;;;;;5029658;28;20064;-74
2022/03/13 12:21:32;;;;;;;12.43;9.43;;;15.00;55.40;;;;;;5048671;28;20048;-74
2022/03/13 12:24:16;;;;;;;12.45;9.70;;;15.10;55.70;;;;;;5074121;28;20342;-74
2022/03/13 12:26:43;;;;;;;11.32;9.27;;;15.20;56.00;;;;;;5071591;28;20051;-73
2022/03/13 12:29:16;;;;;;;11.73;9.35;;;15.30;55.50;;;;;;5051666;28;20107;-74
2022/03/13 12:31:48;;;;;;;11.95;9.50;;;15.30;54.70;;;;;;5071992;28;20503;-74
2022/03/13 12:34:36;;;;;;;14.00;10.25;;;15.30;55.10;;;;;;5051653;28;20048;-74
2022/03/13 12:37:09;;;;;;;13.00;9.23;;;15.40;53.90;;;;;;5046364;28;20233;-74
2022/03/13 12:39:47;;;;;;;11.33;9.67;;;15.10;53.30;;;;;;5047412;28;20068;-75
2022/03/13 12:42:13;;;;;;;12.32;9.35;;;15.30;54.50;;;;;;5042140;28;20074;-74
2022/03/13 12:44:38;;;;;;;13.55;10.25;;;15.30;54.30;;;;;;5039101;28;20303;-74
2022/03/13 12:47:04;;;;;;;11.88;9.68;;;15.40;54.80;;;;;;5042985;28;20253;-74